Latest Weather Observations for Cape Borda

IDS60801

Issued at 11:21 pm CST Thursday 28 May 2020 (issued every 10 minutes, with the page automatically refreshed every 10 minutes)

About weather observations | Map of weather stations | Latest weather observations for SA | Other Formats
Station Details ID: 022823 Name: CAPE BORDA Lat: -35.75 Lon: 136.60 Height: 158.0 m
Data from the previous 72 hours. | See also: Recent months at Cape Borda
Date/Time
CST
Temp
°C
App
Temp
°C
Dew
Point
°C
Rel
Hum
%
Delta-T
°C
Wind Press
QNH
hPa
Press
MSL
hPa
Rain since
9am
mm
Dir  Spd
km/h
Gust
km/h
Spd
kts
Gust
kts
28/11:00pm 13.6 9.9 12.7 94 0.5 NNW 24 33 13 18 1023.2 - 1.0
28/10:30pm 14.0 11.2 13.1 94 0.5 NNW 20 30 11 16 1023.2 - 1.0
28/10:00pm 13.4 11.0 12.8 96 0.3 NNW 17 24 9 13 1023.5 - 0.8
28/09:30pm 13.1 9.2 12.2 94 0.5 NW 24 32 13 17 1023.8 - 0.8
28/09:00pm 13.6 10.5 13.3 98 0.2 NW 22 30 12 16 1023.6 1023.6 0.8
28/08:30pm 13.3 - 13.5 - - NW 22 30 12 16 1023.5 - 0.8
28/08:00pm 14.6 11.3 12.8 89 1.0 N 22 39 12 21 1023.1 - 0.4
28/07:30pm 14.5 11.7 12.7 89 1.0 N 19 26 10 14 1022.8 - 0.4
28/07:00pm 14.5 11.9 13.2 92 0.7 NNW 19 26 10 14 1022.7 - 0.4
28/06:30pm 14.7 12.3 11.5 81 1.7 NNW 15 19 8 10 1022.6 - 0.4
28/06:00pm 14.4 11.4 10.6 78 2.0 NW 17 22 9 12 1022.6 1022.6 0.4
28/05:30pm 14.5 11.4 10.3 76 2.2 NW 17 20 9 11 1022.4 - 0.4
28/05:00pm 15.1 12.4 10.3 73 2.5 WNW 15 20 8 11 1022.3 - 0.4
28/04:30pm 14.9 11.9 10.7 76 2.2 WNW 17 20 9 11 1022.2 - 0.4
28/04:00pm 15.2 12.4 13.2 88 1.1 NW 20 26 11 14 1022.1 - 0.4
28/03:30pm 15.7 13.7 13.9 89 1.0 NNW 17 20 9 11 1021.6 - 0.4
28/03:00pm 15.5 13.4 13.7 89 1.0 NNW 17 24 9 13 1021.6 1021.5 0.4
28/02:30pm 14.0 11.8 13.4 96 0.3 NNW 17 20 9 11 1021.5 - 0.4
28/02:00pm 14.1 12.6 14.1 100 0.0 NNW 15 20 8 11 1021.5 - 0.4
28/01:30pm 13.3 10.1 13.0 98 0.2 WNW 22 33 12 18 1021.6 - 0.4
28/01:00pm 15.7 13.0 13.4 86 1.3 NW 20 28 11 15 1021.8 - 0.0
28/12:30pm 14.8 10.7 11.6 81 1.7 NW 24 33 13 18 1021.9 - 0.0
28/12:00pm 15.6 12.5 11.6 77 2.2 WNW 19 24 10 13 1022.3 1022.3 0.0
28/11:30am 14.9 10.4 11.3 79 1.9 WNW 26 35 14 19 1022.6 - 0.0
28/11:00am 16.1 13.0 11.5 74 2.5 WNW 19 26 10 14 1022.6 - 0.0
28/10:30am 15.3 12.5 11.5 78 2.1 WNW 17 20 9 11 1022.6 - 0.0
28/10:00am 14.2 10.0 11.0 81 1.7 W 24 35 13 19 1022.7 - 0.0
28/09:30am 14.8 10.2 9.6 71 2.7 WNW 24 32 13 17 1022.4 - 0.0
28/09:00am 14.4 11.1 9.4 72 2.6 WNW 17 24 9 13 1022.1 1022.1 0.6
28/08:30am 13.9 10.0 8.5 70 2.7 WNW 19 30 10 16 1021.7 - 0.6
28/08:00am 14.0 9.7 7.8 66 3.1 WNW 20 30 11 16 1021.6 - 0.6
28/07:30am 13.5 9.2 7.7 68 2.9 W 20 28 11 15 1021.4 - 0.6
28/07:00am 13.5 8.8 7.7 68 2.9 WNW 22 30 12 16 1021.0 - 0.6
28/06:30am 13.7 9.7 9.0 73 2.4 WNW 20 28 11 15 1020.3 - 0.6
28/06:00am 13.7 9.8 9.6 76 2.1 WNW 20 26 11 14 1020.1 1020.1 0.6
28/05:30am 13.5 9.4 10.1 80 1.8 WNW 22 30 12 16 1019.9 - 0.6
28/05:00am 13.3 9.5 11.0 86 1.2 NW 22 30 12 16 1019.7 - 0.6
28/04:30am 13.6 10.0 9.8 78 2.0 NW 19 24 10 13 1019.8 - 0.6
28/04:00am 13.8 9.9 9.6 76 2.2 W 20 26 11 14 1019.8 - 0.6
28/03:30am 13.7 9.9 9.7 77 2.1 W 20 30 11 16 1019.9 - 0.6
28/03:00am 13.6 10.0 10.4 81 1.7 WNW 20 28 11 15 1019.9 1019.9 0.6
28/02:30am 12.7 9.4 10.9 89 0.9 W 19 24 10 13 1019.9 - 0.6
28/02:00am 13.0 11.3 12.4 96 0.3 NW 13 17 7 9 1019.8 - 0.6
28/01:30am 12.8 11.2 11.7 93 0.6 NW 11 15 6 8 1019.9 - 0.6
28/01:00am 12.6 10.6 11.5 93 0.6 WNW 13 17 7 9 1019.9 - 0.6
28/12:30am 12.2 10.5 11.1 93 0.6 WNW 11 15 6 8 1020.0 - 0.6
28/12:00am 12.1 10.0 11.0 93 0.6 W 13 20 7 11 1020.0 1020.0 0.6
 
Date/Time
CST
Temp
°C
App
Temp
°C
Dew
Point
°C
Rel
Hum
%
Delta-T
°C
Wind Press
QNH
hPa
Press
MSL
hPa
Rain since
9am
mm
Dir  Spd
km/h
Gust
km/h
Spd
kts
Gust
kts
27/11:30pm 12.7 9.7 11.8 94 0.5 W 19 24 10 13 1020.0 - 0.4
27/11:00pm 12.1 10.0 11.3 95 0.4 W 13 19 7 10 1019.9 - 0.4
27/10:30pm 12.3 10.0 11.8 97 0.3 WNW 15 20 8 11 1019.9 - 0.4
27/10:00pm 11.6 8.8 11.3 98 0.2 WSW 17 28 9 15 1019.9 - 0.4
27/09:30pm 12.1 10.2 11.8 98 0.2 WSW 13 17 7 9 1019.8 - 0.4
27/09:00pm 12.3 9.3 12.1 99 0.1 W 19 26 10 14 1019.7 1019.7 0.4
27/08:30pm 12.0 10.9 12.0 100 0.0 WSW 9 13 5 7 1019.5 - 0.4
27/08:00pm 12.2 10.8 12.2 100 0.0 SW 11 15 6 8 1019.4 - 0.4
27/07:30pm 12.6 9.7 12.4 99 0.1 WSW 19 28 10 15 1019.3 - 0.4
27/07:00pm 12.6 10.9 11.3 92 0.7 WNW 11 15 6 8 1019.0 - 0.4
27/06:30pm 13.1 10.8 11.8 92 0.7 W 15 20 8 11 1018.8 - 0.4
27/06:00pm 12.7 12.2 12.2 97 0.3 WSW 6 9 3 5 1018.7 1018.7 0.4
27/05:30pm 13.5 11.1 12.6 94 0.5 WSW 17 24 9 13 1018.4 - 0.0
27/05:00pm 13.9 12.1 12.1 89 1.0 W 13 17 7 9 1018.3 - 0.0
27/04:30pm 14.5 11.9 12.0 85 1.4 W 17 24 9 13 1018.2 - 0.0
27/04:00pm 14.8 13.1 12.3 85 1.4 W 13 20 7 11 1018.0 - 0.0
27/03:30pm 15.0 12.0 12.5 85 1.4 W 20 26 11 14 1017.8 - 0.0
27/02:30pm 15.0 12.2 12.5 85 1.4 W 19 26 10 14 1017.6 - 0.0
27/02:00pm 15.6 12.7 12.2 80 1.9 W 19 24 10 13 1017.6 - 0.0
27/01:30pm 15.1 12.1 12.1 82 1.6 W 19 28 10 15 1017.7 - 0.0
27/01:00pm 15.3 12.8 12.2 82 1.7 W 17 24 9 13 1017.7 - 0.0
27/12:30pm 15.4 12.6 12.5 83 1.6 W 19 26 10 14 1017.9 - 0.0
27/12:00pm 15.2 12.3 12.3 83 1.6 W 19 26 10 14 1018.1 1018.1 0.0
27/11:30am 14.9 12.2 12.9 88 1.1 WSW 19 26 10 14 1018.3 - 0.0
27/11:00am 15.0 12.2 12.5 85 1.4 WSW 19 28 10 15 1018.5 - 0.0
27/10:30am 14.8 11.8 12.5 86 1.3 WSW 20 28 11 15 1018.6 - 0.0
27/10:00am 14.7 11.6 12.2 85 1.4 WSW 20 28 11 15 1018.3 - 0.0
27/09:30am 14.1 10.6 12.3 89 1.0 WSW 22 32 12 17 1018.2 - 0.0
27/09:00am 13.4 9.8 12.9 97 0.3 WSW 24 35 13 19 1018.1 1018.1 5.8
27/08:30am 13.6 10.4 12.0 90 0.9 WSW 20 32 11 17 1017.7 - 5.8
27/08:00am 13.4 10.4 12.6 95 0.4 WSW 20 28 11 15 1017.5 - 5.8
27/07:30am 13.1 - 13.3 - - W 20 32 11 17 1017.0 - 5.8
27/07:00am 13.0 10.0 12.7 98 0.2 WSW 20 37 11 20 1016.7 - 4.2
27/06:30am 13.8 10.6 13.0 95 0.4 WSW 22 32 12 17 1016.2 - 3.8
27/06:00am 13.4 9.8 12.9 97 0.3 WSW 24 33 13 18 1016.1 1016.0 3.8
27/05:30am 13.8 10.2 12.9 94 0.5 WNW 24 32 13 17 1015.8 - 3.8
27/05:00am 14.0 10.1 13.2 95 0.4 WNW 26 35 14 19 1015.7 - 3.8
27/04:30am 14.2 10.2 13.1 93 0.6 NW 26 35 14 19 1015.6 - 3.8
27/04:00am 13.7 9.4 12.1 90 0.9 NW 26 35 14 19 1015.4 - 3.8
27/03:30am 13.6 - 13.8 - - NW 32 44 17 24 1015.2 - 3.8
27/03:00am 13.6 7.9 13.0 96 0.3 NW 35 54 19 29 1015.2 1015.1 1.0
27/02:54am 14.2 9.1 13.1 93 0.6 NW 32 54 17 29 1015.1 - 0.8
27/02:30am 14.3 9.6 13.3 94 0.6 NW 30 43 16 23 1015.2 - 0.8
27/02:00am 14.4 9.8 13.4 94 0.6 NNW 30 43 16 23 1015.0 - 0.8
27/01:30am 14.5 10.4 13.7 95 0.5 NNW 28 37 15 20 1015.1 - 0.8
27/01:00am 14.1 9.8 13.1 94 0.6 NNW 28 37 15 20 1015.1 - 0.8
27/12:30am 14.2 10.3 13.4 95 0.4 NNW 26 39 14 21 1015.2 - 0.8
27/12:00am 14.0 10.0 13.1 94 0.5 NNW 26 37 14 20 1015.3 1015.2 0.8
 
Date/Time
CST
Temp
°C
App
Temp
°C
Dew
Point
°C
Rel
Hum
%
Delta-T
°C
Wind Press
QNH
hPa
Press
MSL
hPa
Rain since
9am
mm
Dir  Spd
km/h
Gust
km/h
Spd
kts
Gust
kts
26/11:30pm 13.9 9.3 12.3 90 0.9 NNW 28 39 15 21 1015.4 - 0.8
26/11:00pm 13.9 8.3 11.4 85 1.3 NNW 32 43 17 23 1015.2 - 0.8
26/10:30pm 14.0 8.9 12.0 88 1.1 NNW 30 39 16 21 1015.1 - 0.8
26/10:00pm 13.5 8.2 11.4 87 1.1 N 30 46 16 25 1015.4 - 0.8
26/09:46pm 13.8 8.8 10.8 82 1.6 N 28 46 15 25 1015.4 - 0.8
26/09:30pm 13.0 7.5 11.9 93 0.6 N 32 46 17 25 1015.4 - 0.8
26/09:19pm 13.5 7.4 11.6 88 1.0 N 35 54 19 29 1015.4 - 0.8
26/09:00pm 13.6 7.5 10.4 81 1.7 NNW 33 50 18 27 1015.7 1015.6 0.8
26/08:30pm 13.3 7.1 11.4 88 1.0 NNW 35 50 19 27 1015.7 - 0.8
26/08:19pm 13.2 7.7 10.6 84 1.4 NW 30 48 16 26 1015.6 - 0.8
26/08:00pm 13.0 8.2 11.6 91 0.7 NW 28 39 15 21 1015.5 - 0.6
26/07:41pm 14.2 7.5 9.8 75 2.3 NNW 35 54 19 29 1015.2 - 0.6
26/07:30pm 14.8 8.8 10.2 74 2.4 NNW 32 46 17 25 1015.2 - 0.6
26/07:00pm 14.6 7.7 10.2 75 2.3 N 37 46 20 25 1014.7 - 0.6
26/06:30pm 14.4 8.3 10.4 77 2.1 N 33 46 18 25 1014.5 - 0.6
26/06:21pm 14.2 8.0 10.0 76 2.2 N 33 52 18 28 1014.2 - 0.6
26/06:00pm 13.9 7.7 9.5 75 2.3 N 32 46 17 25 1013.9 1013.9 0.6
26/05:36pm 13.5 7.4 9.7 78 2.0 N 32 50 17 27 1013.6 - 0.6
26/05:30pm 13.4 7.0 9.5 77 2.0 N 33 50 18 27 1013.5 - 0.6
26/05:07pm 13.1 6.9 9.5 79 1.8 N 32 50 17 27 1013.5 - 0.6
26/05:00pm 13.0 6.9 9.8 81 1.7 N 32 46 17 25 1013.4 - 0.6
26/04:44pm 12.9 6.6 9.7 81 1.6 N 33 52 18 28 1013.2 - 0.4
26/04:30pm 13.0 6.2 9.3 78 1.9 N 35 48 19 26 1013.1 - 0.2
26/04:00pm 13.6 7.3 9.6 77 2.1 N 33 48 18 26 1013.3 - 0.0
26/03:30pm 14.1 7.1 8.3 68 2.9 N 35 48 19 26 1013.2 - 0.0
26/03:04pm 13.8 6.5 8.8 72 2.5 N 37 56 20 30 1013.4 - 0.0
26/03:00pm 13.9 6.8 9.5 75 2.3 N 37 52 20 28 1013.4 1013.4 0.0
26/02:37pm 13.6 6.4 9.1 74 2.3 N 37 56 20 30 1013.6 - 0.0
26/02:30pm 13.8 6.7 9.6 76 2.2 N 37 52 20 28 1013.5 - 0.0
26/02:00pm 13.8 7.1 9.5 75 2.2 N 35 50 19 27 1013.5 - 0.0
26/01:33pm 13.8 7.2 10.0 78 2.0 N 35 54 19 29 1013.6 - 0.0
26/01:30pm 13.7 6.7 9.9 78 2.0 N 37 54 20 29 1013.6 - 0.0
26/01:13pm 13.6 7.1 10.4 81 1.7 N 35 54 19 29 1013.8 - 0.0
26/01:00pm 13.2 5.8 9.8 80 1.8 N 39 52 21 28 1013.7 - 0.0
26/12:30pm 13.4 6.0 9.8 79 1.9 N 39 54 21 29 1014.4 - 0.0
26/12:03pm 13.4 7.3 9.6 78 2.0 NNE 32 50 17 27 1014.8 - 0.0
26/12:00pm 13.6 7.4 10.2 80 1.8 NNE 33 48 18 26 1014.6 1014.5 0.0
26/11:30am 13.3 7.1 9.5 78 2.0 NNE 32 46 17 25 1015.5 - 0.0
26/11:00am 13.7 6.2 9.4 75 2.2 N 39 52 21 28 1016.0 - 0.0
26/10:30am 13.8 6.4 9.8 77 2.1 N 39 57 21 31 1016.4 - 0.0
26/10:00am 14.0 6.2 9.8 76 2.2 N 41 54 22 29 1016.4 - 0.0
26/09:33am 14.0 6.8 10.4 79 1.9 N 39 57 21 31 1016.7 - 0.0
26/09:30am 13.8 5.6 9.8 77 2.1 N 43 57 23 31 1016.7 - 0.0
26/09:00am 13.5 6.0 9.6 77 2.0 N 39 50 21 27 1016.8 1016.8 0.0
26/08:31am 13.5 6.7 9.2 75 2.2 NNE 35 54 19 29 1016.8 - 0.0
26/08:30am 13.5 6.8 9.7 78 2.0 NNE 35 50 19 27 1016.9 - 0.0
26/08:00am 12.4 6.6 11.5 94 0.5 NNE 33 43 18 23 1016.6 - 0.0
26/07:30am 12.1 6.4 11.0 93 0.6 NNE 32 46 17 25 1016.8 - 0.0
26/07:00am 11.9 5.4 10.3 90 0.8 NNE 35 48 19 26 1016.9 - 0.0
26/06:30am 12.0 5.9 10.4 90 0.8 NNE 33 44 18 24 1016.8 - 0.0
26/06:00am 11.9 5.5 10.6 92 0.7 NNE 35 46 19 25 1016.7 1016.7 0.0
26/05:30am 12.1 5.8 11.0 93 0.6 NNE 35 46 19 25 1016.9 - 0.0
26/05:00am 12.1 5.8 11.2 94 0.5 NNE 35 48 19 26 1017.1 - 0.0
26/04:30am 12.0 5.7 11.1 94 0.5 NNE 35 48 19 26 1017.1 - 0.0
26/04:00am 12.0 6.2 11.4 96 0.3 NNE 33 46 18 25 1017.2 - 0.0
26/03:30am 12.1 6.5 11.5 96 0.3 NNE 32 44 17 24 1017.6 - 0.0
26/03:00am 12.2 6.6 11.4 95 0.4 NNE 32 43 17 23 1017.9 1017.9 0.0
26/02:30am 12.0 6.5 10.7 92 0.7 NNE 30 41 16 22 1018.0 - 0.0
26/02:00am 12.3 6.4 10.5 89 0.9 NNE 32 43 17 23 1018.1 - 0.0
26/01:30am 12.2 6.0 9.9 86 1.2 NNE 33 43 18 23 1018.3 - 0.0
26/01:00am 12.2 6.1 9.8 85 1.2 NNE 32 46 17 25 1018.5 - 0.0
26/12:30am 12.1 6.4 9.8 86 1.2 NNE 30 43 16 23 1019.0 - 0.0
26/12:00am 12.1 6.1 10.0 87 1.1 NNE 32 44 17 24 1019.0 1019.0 0.0
 
Date/Time
CST
Temp
°C
App
Temp
°C
Dew
Point
°C
Rel
Hum
%
Delta-T
°C
Wind Press
QNH
hPa
Press
MSL
hPa
Rain since
9am
mm
Dir  Spd
km/h
Gust
km/h
Spd
kts
Gust
kts
25/11:30pm 11.9 5.7 9.5 85 1.2 NNE 32 41 17 22 1018.8 - 0.0

Other formats

Comma delimited format used in spreadsheet applications
http://www.bom.gov.au/fwo/IDS60801/IDS60801.95805.axf

JavaScript Object Notation format (JSON) in row-major order
http://www.bom.gov.au/fwo/IDS60801/IDS60801.95805.json

Data quality

Most of these data are generated automatically and are frequently updated. Quality checks on data are not normally performed. It is possible for incorrect values to appear. Refer to information at About Latest Weather Observations and please check the disclaimer before using these data.